OAS8734 SPZO-SPHY
Flight info
| Callsign | OAS8734 |
|---|---|
| Flight time | 0h 42m |
| Altitude | 26000 |
| Route | TAUJA3 TILPA UTGOL DCT |
| Aircraft | B350/L-SBGRW/S |
Departure
| Time | 2026-05-07 14:42 |
|---|---|
| Airport | Alejandro Velasco Astete International Airport (SPZO) |
Arrival
| Time | 2026-05-07 15:24 |
|---|---|
| Airport | Andahuaylas Airport (SPHY) |
| Time | Latitude | Longitude | Altitude | Speed | Heading |
|---|---|---|---|---|---|
| 2026-05-07 14:29 | -13.53726 | -71.94525 | 10813 ft | 0 kts | 272° |
| 2026-05-07 14:36 | -13.53725 | -71.94527 | 10813 ft | 1 kts | 306° |
| 2026-05-07 14:36 | -13.53715 | -71.94520 | 10813 ft | 6 kts | 76° |
| 2026-05-07 14:36 | -13.53703 | -71.94463 | 10813 ft | 9 kts | 33° |
| 2026-05-07 14:37 | -13.53653 | -71.94484 | 10813 ft | 8 kts | 295° |
| 2026-05-07 14:37 | -13.53638 | -71.94598 | 10817 ft | 5 kts | 275° |
| 2026-05-07 14:37 | -13.53635 | -71.94625 | 10818 ft | 6 kts | 276° |
| 2026-05-07 14:38 | -13.53625 | -71.94711 | 10824 ft | 13 kts | 278° |
| 2026-05-07 14:38 | -13.53618 | -71.94786 | 10828 ft | 9 kts | 276° |
| 2026-05-07 14:38 | -13.53607 | -71.94881 | 10835 ft | 19 kts | 276° |
| 2026-05-07 14:38 | -13.53599 | -71.94986 | 10848 ft | 17 kts | 279° |
| 2026-05-07 14:39 | -13.53585 | -71.95124 | 10856 ft | 19 kts | 275° |
| 2026-05-07 14:39 | -13.53572 | -71.95243 | 10864 ft | 15 kts | 277° |
| 2026-05-07 14:39 | -13.53564 | -71.95346 | 10860 ft | 14 kts | 276° |
| 2026-05-07 14:39 | -13.53539 | -71.95426 | 10860 ft | 10 kts | 338° |
| 2026-05-07 14:40 | -13.53478 | -71.95427 | 10860 ft | 9 kts | 3° |
| 2026-05-07 14:40 | -13.53420 | -71.95422 | 10862 ft | 6 kts | 20° |
| 2026-05-07 14:40 | -13.53419 | -71.95384 | 10861 ft | 19 kts | 96° |
| 2026-05-07 14:40 | -13.53456 | -71.95036 | 10849 ft | 78 kts | 96° |
| 2026-05-07 14:41 | -13.53528 | -71.94291 | 10811 ft | 127 kts | 95° |
| 2026-05-07 14:41 | -13.53636 | -71.93252 | 10800 ft | 162 kts | 94° |
| 2026-05-07 14:41 | -13.53717 | -71.92058 | 11157 ft | 178 kts | 95° |
| 2026-05-07 14:41 | -13.53877 | -71.90713 | 11433 ft | 199 kts | 98° |
| 2026-05-07 14:42 | -13.54091 | -71.89258 | 11883 ft | 212 kts | 104° |
| 2026-05-07 14:42 | -13.54612 | -71.87814 | 12351 ft | 220 kts | 116° |
| 2026-05-07 14:42 | -13.55297 | -71.86388 | 12698 ft | 225 kts | 113° |
| 2026-05-07 14:42 | -13.55820 | -71.84856 | 12977 ft | 229 kts | 109° |
| 2026-05-07 14:43 | -13.56355 | -71.83304 | 13267 ft | 232 kts | 110° |
| 2026-05-07 14:43 | -13.56922 | -71.81740 | 13647 ft | 235 kts | 112° |
| 2026-05-07 14:43 | -13.57551 | -71.80185 | 14038 ft | 237 kts | 112° |
| 2026-05-07 14:43 | -13.58175 | -71.78611 | 14421 ft | 238 kts | 112° |
| 2026-05-07 14:44 | -13.58798 | -71.77031 | 14763 ft | 239 kts | 112° |
| 2026-05-07 14:44 | -13.59460 | -71.75455 | 15119 ft | 240 kts | 118° |
| 2026-05-07 14:44 | -13.60364 | -71.74015 | 15476 ft | 240 kts | 128° |
| 2026-05-07 14:44 | -13.61492 | -71.72749 | 15823 ft | 241 kts | 137° |
| 2026-05-07 14:45 | -13.62816 | -71.71700 | 16178 ft | 241 kts | 147° |
| 2026-05-07 14:45 | -13.64300 | -71.70899 | 16536 ft | 241 kts | 157° |
| 2026-05-07 14:45 | -13.65895 | -71.70374 | 16906 ft | 241 kts | 167° |
| 2026-05-07 14:45 | -13.67559 | -71.70144 | 17274 ft | 242 kts | 176° |
| 2026-05-07 14:46 | -13.69246 | -71.70216 | 17653 ft | 243 kts | 187° |
| 2026-05-07 14:46 | -13.70896 | -71.70592 | 18037 ft | 244 kts | 197° |
| 2026-05-07 14:46 | -13.72466 | -71.71256 | 18405 ft | 245 kts | 206° |
| 2026-05-07 14:46 | -13.73902 | -71.72198 | 18750 ft | 246 kts | 217° |
| 2026-05-07 14:47 | -13.75158 | -71.73397 | 19067 ft | 247 kts | 227° |
| 2026-05-07 14:47 | -13.76188 | -71.74814 | 19398 ft | 248 kts | 238° |
| 2026-05-07 14:47 | -13.76956 | -71.76401 | 19716 ft | 249 kts | 248° |
| 2026-05-07 14:47 | -13.77437 | -71.78114 | 20036 ft | 250 kts | 258° |
| 2026-05-07 14:48 | -13.77610 | -71.79889 | 20361 ft | 250 kts | 269° |
| 2026-05-07 14:48 | -13.77470 | -71.81676 | 20688 ft | 251 kts | 279° |
| 2026-05-07 14:48 | -13.77026 | -71.83388 | 21014 ft | 252 kts | 290° |
| 2026-05-07 14:48 | -13.76277 | -71.85015 | 21333 ft | 253 kts | 300° |
| 2026-05-07 14:49 | -13.75378 | -71.86567 | 21659 ft | 253 kts | 300° |
| 2026-05-07 14:49 | -13.74491 | -71.88129 | 21970 ft | 253 kts | 300° |
| 2026-05-07 14:49 | -13.73617 | -71.89654 | 22296 ft | 253 kts | 300° |
| 2026-05-07 14:49 | -13.72719 | -71.91214 | 22608 ft | 253 kts | 300° |
| 2026-05-07 14:50 | -13.71822 | -71.92776 | 22914 ft | 254 kts | 300° |
| 2026-05-07 14:50 | -13.70922 | -71.94343 | 23222 ft | 254 kts | 300° |
| 2026-05-07 14:50 | -13.70024 | -71.95909 | 23528 ft | 255 kts | 299° |
| 2026-05-07 14:50 | -13.69190 | -71.97515 | 23816 ft | 255 kts | 294° |
| 2026-05-07 14:51 | -13.68481 | -71.99186 | 24113 ft | 255 kts | 290° |
| 2026-05-07 14:51 | -13.67902 | -72.00905 | 24362 ft | 254 kts | 285° |
| 2026-05-07 14:51 | -13.67453 | -72.02656 | 24603 ft | 253 kts | 281° |
| 2026-05-07 14:51 | -13.67134 | -72.04436 | 24840 ft | 252 kts | 277° |
| 2026-05-07 14:52 | -13.66947 | -72.06223 | 25072 ft | 251 kts | 272° |
| 2026-05-07 14:52 | -13.66890 | -72.08013 | 25298 ft | 250 kts | 268° |
| 2026-05-07 14:52 | -13.66948 | -72.09792 | 25533 ft | 249 kts | 266° |
| 2026-05-07 14:52 | -13.67012 | -72.11567 | 25753 ft | 248 kts | 267° |
| 2026-05-07 14:53 | -13.67071 | -72.13335 | 25978 ft | 247 kts | 267° |
| 2026-05-07 14:53 | -13.67135 | -72.15098 | 26208 ft | 246 kts | 267° |
| 2026-05-07 14:53 | -13.67201 | -72.16855 | 26361 ft | 249 kts | 267° |
| 2026-05-07 14:53 | -13.67266 | -72.18641 | 26342 ft | 249 kts | 268° |
| 2026-05-07 14:54 | -13.67331 | -72.20421 | 26325 ft | 249 kts | 268° |
| 2026-05-07 14:54 | -13.67398 | -72.22211 | 26304 ft | 255 kts | 268° |
| 2026-05-07 14:54 | -13.67466 | -72.24060 | 26293 ft | 263 kts | 267° |
| 2026-05-07 14:54 | -13.67534 | -72.25958 | 26277 ft | 268 kts | 268° |
| 2026-05-07 14:55 | -13.67601 | -72.27896 | 26258 ft | 274 kts | 268° |
| 2026-05-07 14:55 | -13.67673 | -72.29867 | 26260 ft | 278 kts | 268° |
| 2026-05-07 14:55 | -13.67744 | -72.31871 | 26267 ft | 282 kts | 268° |
| 2026-05-07 14:55 | -13.67817 | -72.33898 | 26263 ft | 286 kts | 268° |
| 2026-05-07 14:56 | -13.67868 | -72.35282 | 26266 ft | 288 kts | 268° |
| 2026-05-07 14:56 | -13.67941 | -72.37344 | 26271 ft | 289 kts | 268° |
| 2026-05-07 14:56 | -13.68015 | -72.39421 | 26269 ft | 292 kts | 268° |
| 2026-05-07 14:56 | -13.68092 | -72.41513 | 26271 ft | 293 kts | 267° |
| 2026-05-07 14:57 | -13.68165 | -72.43609 | 26271 ft | 295 kts | 268° |
| 2026-05-07 14:57 | -13.68238 | -72.45720 | 26273 ft | 296 kts | 268° |
| 2026-05-07 14:57 | -13.68313 | -72.47808 | 26271 ft | 297 kts | 268° |
| 2026-05-07 14:57 | -13.68393 | -72.49929 | 26274 ft | 297 kts | 267° |
| 2026-05-07 14:58 | -13.68471 | -72.52055 | 26276 ft | 298 kts | 268° |
| 2026-05-07 14:58 | -13.68547 | -72.54190 | 26276 ft | 299 kts | 268° |
| 2026-05-07 14:58 | -13.68624 | -72.56327 | 26282 ft | 299 kts | 267° |
| 2026-05-07 14:58 | -13.68701 | -72.58463 | 26276 ft | 300 kts | 267° |
| 2026-05-07 14:59 | -13.68781 | -72.60609 | 26279 ft | 301 kts | 268° |
| 2026-05-07 14:59 | -13.68858 | -72.62759 | 26282 ft | 301 kts | 267° |
| 2026-05-07 14:59 | -13.68936 | -72.64910 | 26283 ft | 301 kts | 267° |
| 2026-05-07 14:59 | -13.69013 | -72.67064 | 26278 ft | 302 kts | 267° |
| 2026-05-07 15:00 | -13.69089 | -72.69223 | 26280 ft | 302 kts | 267° |
| 2026-05-07 15:00 | -13.69167 | -72.71381 | 26283 ft | 302 kts | 267° |
| 2026-05-07 15:00 | -13.69246 | -72.73541 | 26285 ft | 302 kts | 268° |
| 2026-05-07 15:00 | -13.69323 | -72.75705 | 26282 ft | 302 kts | 267° |
| 2026-05-07 15:01 | -13.69398 | -72.77863 | 26282 ft | 303 kts | 267° |
| 2026-05-07 15:01 | -13.69473 | -72.80028 | 26283 ft | 303 kts | 267° |
| 2026-05-07 15:01 | -13.69550 | -72.82189 | 26289 ft | 303 kts | 267° |
| 2026-05-07 15:01 | -13.69629 | -72.84355 | 26293 ft | 303 kts | 267° |
| 2026-05-07 15:02 | -13.69705 | -72.86520 | 26289 ft | 303 kts | 267° |
| 2026-05-07 15:02 | -13.69771 | -72.88686 | 26287 ft | 303 kts | 270° |
| 2026-05-07 15:02 | -13.69631 | -72.90849 | 26291 ft | 303 kts | 274° |
| 2026-05-07 15:02 | -13.69467 | -72.93008 | 26287 ft | 303 kts | 273° |
| 2026-05-07 15:03 | -13.69321 | -72.95160 | 26288 ft | 302 kts | 273° |
| 2026-05-07 15:03 | -13.69173 | -72.97310 | 26292 ft | 301 kts | 274° |
| 2026-05-07 15:03 | -13.69020 | -72.99460 | 26308 ft | 301 kts | 273° |
| 2026-05-07 15:03 | -13.68866 | -73.01608 | 26334 ft | 302 kts | 273° |
| 2026-05-07 15:04 | -13.68714 | -73.03761 | 26357 ft | 302 kts | 273° |
| 2026-05-07 15:04 | -13.68562 | -73.05912 | 26383 ft | 302 kts | 273° |
| 2026-05-07 15:04 | -13.68408 | -73.08062 | 26407 ft | 301 kts | 273° |
| 2026-05-07 15:04 | -13.68255 | -73.10210 | 26435 ft | 301 kts | 273° |
| 2026-05-07 15:05 | -13.68103 | -73.12358 | 26459 ft | 302 kts | 273° |
| 2026-05-07 15:05 | -13.67952 | -73.14481 | 26483 ft | 302 kts | 274° |
| 2026-05-07 15:05 | -13.67797 | -73.16634 | 26504 ft | 302 kts | 273° |
| 2026-05-07 15:05 | -13.67645 | -73.18784 | 26530 ft | 302 kts | 273° |
| 2026-05-07 15:06 | -13.67491 | -73.20935 | 26555 ft | 302 kts | 274° |
| 2026-05-07 15:06 | -13.67337 | -73.23083 | 26577 ft | 302 kts | 273° |
| 2026-05-07 15:06 | -13.67182 | -73.25235 | 26601 ft | 302 kts | 274° |
| 2026-05-07 15:06 | -13.67028 | -73.27389 | 26615 ft | 302 kts | 273° |
| 2026-05-07 15:07 | -13.66872 | -73.29541 | 26613 ft | 302 kts | 274° |
| 2026-05-07 15:07 | -13.66718 | -73.31678 | 26598 ft | 295 kts | 274° |
| 2026-05-07 15:07 | -13.66568 | -73.33740 | 26380 ft | 283 kts | 273° |
| 2026-05-07 15:07 | -13.66424 | -73.35752 | 25949 ft | 282 kts | 272° |
| 2026-05-07 15:08 | -13.66282 | -73.37763 | 25514 ft | 282 kts | 272° |
| 2026-05-07 15:08 | -13.66136 | -73.39775 | 25087 ft | 282 kts | 272° |
| 2026-05-07 15:08 | -13.65988 | -73.41790 | 24647 ft | 284 kts | 272° |
| 2026-05-07 15:08 | -13.65842 | -73.43816 | 24203 ft | 285 kts | 271° |
| 2026-05-07 15:09 | -13.65695 | -73.45850 | 23652 ft | 286 kts | 271° |
| 2026-05-07 15:09 | -13.65547 | -73.47894 | 23100 ft | 287 kts | 272° |
| 2026-05-07 15:09 | -13.65398 | -73.49928 | 22558 ft | 285 kts | 272° |
| 2026-05-07 15:09 | -13.65252 | -73.51952 | 22026 ft | 283 kts | 272° |
| 2026-05-07 15:10 | -13.65104 | -73.53962 | 21503 ft | 281 kts | 272° |
| 2026-05-07 15:10 | -13.64802 | -73.55940 | 20989 ft | 280 kts | 287° |
| 2026-05-07 15:10 | -13.63877 | -73.57690 | 20503 ft | 279 kts | 310° |
| 2026-05-07 15:10 | -13.62405 | -73.58963 | 20023 ft | 277 kts | 332° |
| 2026-05-07 15:11 | -13.60604 | -73.59592 | 19556 ft | 273 kts | 354° |
| 2026-05-07 15:11 | -13.58727 | -73.59513 | 19096 ft | 269 kts | 14° |
| 2026-05-07 15:11 | -13.57020 | -73.58802 | 18635 ft | 264 kts | 34° |
| 2026-05-07 15:11 | -13.55577 | -73.57658 | 18115 ft | 261 kts | 41° |
| 2026-05-07 15:12 | -13.54222 | -73.56424 | 17600 ft | 260 kts | 45° |
| 2026-05-07 15:12 | -13.52963 | -73.55093 | 17084 ft | 259 kts | 49° |
| 2026-05-07 15:12 | -13.51806 | -73.53682 | 16582 ft | 258 kts | 53° |
| 2026-05-07 15:12 | -13.50754 | -73.52197 | 16086 ft | 256 kts | 57° |
| 2026-05-07 15:13 | -13.49814 | -73.50653 | 15599 ft | 254 kts | 61° |
| 2026-05-07 15:13 | -13.48989 | -73.49056 | 15121 ft | 252 kts | 65° |
| 2026-05-07 15:13 | -13.48282 | -73.47420 | 14647 ft | 250 kts | 69° |
| 2026-05-07 15:13 | -13.47697 | -73.45771 | 14224 ft | 247 kts | 72° |
| 2026-05-07 15:14 | -13.47233 | -73.44114 | 14008 ft | 232 kts | 76° |
| 2026-05-07 15:14 | -13.46898 | -73.42568 | 14002 ft | 212 kts | 79° |
| 2026-05-07 15:14 | -13.46674 | -73.41136 | 13997 ft | 199 kts | 83° |
| 2026-05-07 15:14 | -13.46529 | -73.39718 | 13996 ft | 200 kts | 86° |
| 2026-05-07 15:15 | -13.46454 | -73.38287 | 13998 ft | 201 kts | 89° |
| 2026-05-07 15:15 | -13.46470 | -73.36847 | 14001 ft | 201 kts | 92° |
| 2026-05-07 15:15 | -13.46561 | -73.35408 | 13994 ft | 202 kts | 96° |
| 2026-05-07 15:15 | -13.46731 | -73.33978 | 14006 ft | 200 kts | 99° |
| 2026-05-07 15:16 | -13.46970 | -73.32601 | 14008 ft | 192 kts | 102° |
| 2026-05-07 15:16 | -13.47269 | -73.31288 | 14003 ft | 186 kts | 104° |
| 2026-05-07 15:16 | -13.47623 | -73.30018 | 14017 ft | 185 kts | 108° |
| 2026-05-07 15:16 | -13.48039 | -73.28778 | 14019 ft | 182 kts | 110° |
| 2026-05-07 15:17 | -13.48488 | -73.27568 | 14025 ft | 180 kts | 110° |
| 2026-05-07 15:17 | -13.48929 | -73.26371 | 14017 ft | 178 kts | 111° |
| 2026-05-07 15:17 | -13.49369 | -73.25185 | 14020 ft | 177 kts | 111° |
| 2026-05-07 15:17 | -13.49804 | -73.24006 | 14017 ft | 176 kts | 111° |
| 2026-05-07 15:18 | -13.50233 | -73.22828 | 14012 ft | 175 kts | 111° |
| 2026-05-07 15:18 | -13.50974 | -73.21894 | 14030 ft | 172 kts | 156° |
| 2026-05-07 15:18 | -13.52129 | -73.21883 | 14039 ft | 171 kts | 204° |
| 2026-05-07 15:18 | -13.53194 | -73.22400 | 14037 ft | 166 kts | 204° |
| 2026-05-07 15:19 | -13.54225 | -73.22884 | 14049 ft | 159 kts | 203° |
| 2026-05-07 15:19 | -13.55204 | -73.23353 | 14049 ft | 151 kts | 215° |
| 2026-05-07 15:19 | -13.55856 | -73.24148 | 14061 ft | 144 kts | 239° |
| 2026-05-07 15:19 | -13.56369 | -73.25030 | 14078 ft | 146 kts | 238° |
| 2026-05-07 15:20 | -13.56989 | -73.25870 | 14086 ft | 150 kts | 231° |
| 2026-05-07 15:20 | -13.57724 | -73.26628 | 14109 ft | 149 kts | 212° |
| 2026-05-07 15:20 | -13.58575 | -73.27212 | 14110 ft | 145 kts | 213° |
| 2026-05-07 15:20 | -13.59411 | -73.27775 | 14117 ft | 144 kts | 212° |
| 2026-05-07 15:21 | -13.60297 | -73.28351 | 13961 ft | 158 kts | 211° |
| 2026-05-07 15:21 | -13.61254 | -73.28967 | 13770 ft | 164 kts | 211° |
| 2026-05-07 15:21 | -13.62192 | -73.29562 | 13581 ft | 151 kts | 211° |
| 2026-05-07 15:21 | -13.63045 | -73.30111 | 13414 ft | 139 kts | 211° |
| 2026-05-07 15:22 | -13.63835 | -73.30614 | 13235 ft | 128 kts | 211° |
| 2026-05-07 15:22 | -13.64567 | -73.31091 | 13076 ft | 122 kts | 211° |
| 2026-05-07 15:22 | -13.65277 | -73.31542 | 12927 ft | 118 kts | 211° |
| 2026-05-07 15:22 | -13.65968 | -73.31984 | 12799 ft | 122 kts | 211° |
| 2026-05-07 15:23 | -13.66746 | -73.32494 | 12653 ft | 140 kts | 213° |
| 2026-05-07 15:23 | -13.67575 | -73.33017 | 12464 ft | 136 kts | 213° |
| 2026-05-07 15:23 | -13.68365 | -73.33526 | 12239 ft | 135 kts | 214° |
| 2026-05-07 15:23 | -13.69169 | -73.34023 | 12080 ft | 140 kts | 213° |
| 2026-05-07 15:24 | -13.70004 | -73.34583 | 11750 ft | 141 kts | 214° |
| 2026-05-07 15:24 | -13.70764 | -73.35057 | 11677 ft | 115 kts | 213° |
| 2026-05-07 15:24 | -13.71262 | -73.35389 | 11654 ft | 61 kts | 213° |
| 2026-05-07 15:24 | -13.71479 | -73.35523 | 11648 ft | 14 kts | 197° |
| 2026-05-07 15:25 | -13.71526 | -73.35542 | 11645 ft | 2 kts | 354° |
| 2026-05-07 15:25 | -13.71513 | -73.35537 | 11646 ft | 1 kts | 19° |
| 2026-05-07 15:25 | -13.71443 | -73.35499 | 11649 ft | 19 kts | 33° |
| 2026-05-07 15:25 | -13.71327 | -73.35428 | 11652 ft | 19 kts | 33° |
| 2026-05-07 15:26 | -13.71220 | -73.35358 | 11656 ft | 16 kts | 33° |
| 2026-05-07 15:26 | -13.71237 | -73.35268 | 11655 ft | 14 kts | 115° |
| 2026-05-07 15:26 | -13.71265 | -73.35249 | 11654 ft | 0 kts | 215° |
| 2026-05-07 15:28 | -13.71279 | -73.35268 | 11654 ft | 0 kts | 195° |
| 2026-05-07 15:28 | -13.71244 | -73.35258 | 11655 ft | 0 kts | 195° |